sensor_id;sensor_type;location;lat;lon;timestamp;temperature;humidity
44843;DHT22;31884;52.538;13.820;2023-01-29T00:01:27;0.10;95.10
44843;DHT22;31884;52.538;13.820;2023-01-29T00:03:52;0.10;95.10
44843;DHT22;31884;52.538;13.820;2023-01-29T00:06:18;0.10;94.90
44843;DHT22;31884;52.538;13.820;2023-01-29T00:08:44;0.20;94.90
44843;DHT22;31884;52.538;13.820;2023-01-29T00:11:09;0.20;94.70
44843;DHT22;31884;52.538;13.820;2023-01-29T00:13:35;0.20;94.30
44843;DHT22;31884;52.538;13.820;2023-01-29T00:16:01;0.20;94.40
44843;DHT22;31884;52.538;13.820;2023-01-29T00:18:27;0.20;94.00
44843;DHT22;31884;52.538;13.820;2023-01-29T00:20:54;0.30;94.10
44843;DHT22;31884;52.538;13.820;2023-01-29T00:23:20;0.30;94.00
44843;DHT22;31884;52.538;13.820;2023-01-29T00:25:45;0.30;94.00
44843;DHT22;31884;52.538;13.820;2023-01-29T00:28:12;0.30;94.20
44843;DHT22;31884;52.538;13.820;2023-01-29T00:30:38;0.40;94.40
44843;DHT22;31884;52.538;13.820;2023-01-29T00:33:04;0.40;94.30
44843;DHT22;31884;52.538;13.820;2023-01-29T00:35:30;0.40;94.00
44843;DHT22;31884;52.538;13.820;2023-01-29T00:37:55;0.40;93.90
44843;DHT22;31884;52.538;13.820;2023-01-29T00:40:21;0.50;93.90
44843;DHT22;31884;52.538;13.820;2023-01-29T00:42:48;0.50;93.90
44843;DHT22;31884;52.538;13.820;2023-01-29T00:45:32;0.50;93.50
44843;DHT22;31884;52.538;13.820;2023-01-29T00:47:58;0.50;93.20
44843;DHT22;31884;52.538;13.820;2023-01-29T00:50:24;0.50;93.30
44843;DHT22;31884;52.538;13.820;2023-01-29T00:52:49;0.50;93.50
44843;DHT22;31884;52.538;13.820;2023-01-29T00:55:17;0.50;93.60
44843;DHT22;31884;52.538;13.820;2023-01-29T00:57:42;0.50;93.40
44843;DHT22;31884;52.538;13.820;2023-01-29T01:00:12;0.50;93.50
44843;DHT22;31884;52.538;13.820;2023-01-29T01:02:38;0.50;93.50
44843;DHT22;31884;52.538;13.820;2023-01-29T01:05:23;0.60;93.70
44843;DHT22;31884;52.538;13.820;2023-01-29T01:07:51;0.60;93.30
44843;DHT22;31884;52.538;13.820;2023-01-29T01:10:29;0.60;93.40
44843;DHT22;31884;52.538;13.820;2023-01-29T01:12:56;0.60;93.50
44843;DHT22;31884;52.538;13.820;2023-01-29T01:15:24;0.60;93.70
44843;DHT22;31884;52.538;13.820;2023-01-29T01:17:52;0.60;93.80
44843;DHT22;31884;52.538;13.820;2023-01-29T01:20:17;0.60;93.80
44843;DHT22;31884;52.538;13.820;2023-01-29T01:22:43;0.70;93.60
44843;DHT22;31884;52.538;13.820;2023-01-29T01:25:09;0.70;93.90
44843;DHT22;31884;52.538;13.820;2023-01-29T01:27:34;0.70;94.00
44843;DHT22;31884;52.538;13.820;2023-01-29T01:30:12;0.70;93.80
44843;DHT22;31884;52.538;13.820;2023-01-29T01:32:38;0.70;93.60
44843;DHT22;31884;52.538;13.820;2023-01-29T01:35:04;0.80;93.90
44843;DHT22;31884;52.538;13.820;2023-01-29T01:37:30;0.80;94.00
44843;DHT22;31884;52.538;13.820;2023-01-29T01:39:55;0.80;94.00
44843;DHT22;31884;52.538;13.820;2023-01-29T01:42:26;0.80;93.80
44843;DHT22;31884;52.538;13.820;2023-01-29T01:44:58;0.80;93.70
44843;DHT22;31884;52.538;13.820;2023-01-29T01:47:40;0.80;93.80
44843;DHT22;31884;52.538;13.820;2023-01-29T01:50:26;0.80;93.60
44843;DHT22;31884;52.538;13.820;2023-01-29T01:52:58;0.80;93.80
44843;DHT22;31884;52.538;13.820;2023-01-29T01:55:26;0.80;93.80
44843;DHT22;31884;52.538;13.820;2023-01-29T01:57:57;0.90;93.80
44843;DHT22;31884;52.538;13.820;2023-01-29T02:00:25;0.90;93.80
44843;DHT22;31884;52.538;13.820;2023-01-29T02:02:51;0.90;93.70
44843;DHT22;31884;52.538;13.820;2023-01-29T02:05:36;0.90;93.60
44843;DHT22;31884;52.538;13.820;2023-01-29T02:08:30;0.90;93.90
44843;DHT22;31884;52.538;13.820;2023-01-29T02:11:16;0.90;94.00
44843;DHT22;31884;52.538;13.820;2023-01-29T02:13:41;0.90;93.90
44843;DHT22;31884;52.538;13.820;2023-01-29T02:16:07;0.90;93.60
44843;DHT22;31884;52.538;13.820;2023-01-29T02:18:32;0.90;93.60
44843;DHT22;31884;52.538;13.820;2023-01-29T02:21:19;0.90;93.90
44843;DHT22;31884;52.538;13.820;2023-01-29T02:26:49;0.90;93.80
44843;DHT22;31884;52.538;13.820;2023-01-29T02:40:35;0.80;94.60
44843;DHT22;31884;52.538;13.820;2023-01-29T02:43:29;0.90;94.70
44843;DHT22;31884;52.538;13.820;2023-01-29T02:46:00;0.90;94.80
44843;DHT22;31884;52.538;13.820;2023-01-29T02:48:35;0.90;95.00
44843;DHT22;31884;52.538;13.820;2023-01-29T02:51:12;0.80;94.90
44843;DHT22;31884;52.538;13.820;2023-01-29T02:56:26;0.90;95.20
44843;DHT22;31884;52.538;13.820;2023-01-29T02:58:59;0.90;95.30
44843;DHT22;31884;52.538;13.820;2023-01-29T03:01:38;0.90;95.20
44843;DHT22;31884;52.538;13.820;2023-01-29T03:04:11;0.90;95.30
44843;DHT22;31884;52.538;13.820;2023-01-29T03:06:43;0.90;95.40
44843;DHT22;31884;52.538;13.820;2023-01-29T03:09:21;0.90;95.60
44843;DHT22;31884;52.538;13.820;2023-01-29T03:11:52;0.90;95.70
44843;DHT22;31884;52.538;13.820;2023-01-29T03:14:24;0.90;95.60
44843;DHT22;31884;52.538;13.820;2023-01-29T03:17:14;0.90;95.70
44843;DHT22;31884;52.538;13.820;2023-01-29T03:19:42;0.90;95.70
44843;DHT22;31884;52.538;13.820;2023-01-29T03:22:12;0.90;95.90
44843;DHT22;31884;52.538;13.820;2023-01-29T03:24:45;0.90;95.90
44843;DHT22;31884;52.538;13.820;2023-01-29T03:27:36;0.90;95.90
44843;DHT22;31884;52.538;13.820;2023-01-29T03:30:24;0.80;96.00
44843;DHT22;31884;52.538;13.820;2023-01-29T03:33:11;0.80;96.10
44843;DHT22;31884;52.538;13.820;2023-01-29T03:35:55;0.80;96.30
44843;DHT22;31884;52.538;13.820;2023-01-29T03:38:25;0.80;96.50
44843;DHT22;31884;52.538;13.820;2023-01-29T03:41:01;0.80;96.70
44843;DHT22;31884;52.538;13.820;2023-01-29T03:43:54;0.80;96.80
44843;DHT22;31884;52.538;13.820;2023-01-29T03:49:10;0.90;96.90
44843;DHT22;31884;52.538;13.820;2023-01-29T03:52:13;0.90;97.00
44843;DHT22;31884;52.538;13.820;2023-01-29T03:54:53;0.90;97.00
44843;DHT22;31884;52.538;13.820;2023-01-29T03:57:35;0.90;97.00
44843;DHT22;31884;52.538;13.820;2023-01-29T04:00:22;0.80;97.10
44843;DHT22;31884;52.538;13.820;2023-01-29T04:05:39;0.90;97.10
44843;DHT22;31884;52.538;13.820;2023-01-29T04:08:10;0.90;97.10
44843;DHT22;31884;52.538;13.820;2023-01-29T04:10:38;0.90;97.10
44843;DHT22;31884;52.538;13.820;2023-01-29T04:13:08;0.90;97.10
44843;DHT22;31884;52.538;13.820;2023-01-29T04:15:43;0.90;97.20
44843;DHT22;31884;52.538;13.820;2023-01-29T04:18:10;0.90;97.20
44843;DHT22;31884;52.538;13.820;2023-01-29T04:20:36;0.90;97.10
44843;DHT22;31884;52.538;13.820;2023-01-29T04:23:05;0.90;97.50
44843;DHT22;31884;52.538;13.820;2023-01-29T04:25:47;0.90;97.50
44843;DHT22;31884;52.538;13.820;2023-01-29T04:28:22;1.00;97.50
44843;DHT22;31884;52.538;13.820;2023-01-29T04:30:57;1.00;97.50
44843;DHT22;31884;52.538;13.820;2023-01-29T04:33:36;1.00;97.50
44843;DHT22;31884;52.538;13.820;2023-01-29T04:36:24;1.00;97.40
44843;DHT22;31884;52.538;13.820;2023-01-29T04:39:23;1.00;97.40
44843;DHT22;31884;52.538;13.820;2023-01-29T04:42:04;1.00;97.10
44843;DHT22;31884;52.538;13.820;2023-01-29T04:44:42;1.10;97.20
44843;DHT22;31884;52.538;13.820;2023-01-29T04:47:31;1.10;97.10
44843;DHT22;31884;52.538;13.820;2023-01-29T04:52:54;1.10;97.50
44843;DHT22;31884;52.538;13.820;2023-01-29T04:55:45;1.10;97.60
44843;DHT22;31884;52.538;13.820;2023-01-29T04:58:13;1.10;97.70
44843;DHT22;31884;52.538;13.820;2023-01-29T05:00:46;1.10;98.00
44843;DHT22;31884;52.538;13.820;2023-01-29T05:03:14;1.10;98.20
44843;DHT22;31884;52.538;13.820;2023-01-29T05:05:42;1.10;98.50
44843;DHT22;31884;52.538;13.820;2023-01-29T05:08:11;1.10;98.80
44843;DHT22;31884;52.538;13.820;2023-01-29T05:10:38;1.10;98.90
44843;DHT22;31884;52.538;13.820;2023-01-29T05:13:05;1.10;98.80
44843;DHT22;31884;52.538;13.820;2023-01-29T05:15:37;1.10;99.10
44843;DHT22;31884;52.538;13.820;2023-01-29T05:18:04;1.10;99.40
44843;DHT22;31884;52.538;13.820;2023-01-29T05:20:34;1.10;99.90
44843;DHT22;31884;52.538;13.820;2023-01-29T05:23:00;1.10;99.90
44843;DHT22;31884;52.538;13.820;2023-01-29T05:25:31;1.10;99.90
44843;DHT22;31884;52.538;13.820;2023-01-29T05:27:57;1.10;99.90
44843;DHT22;31884;52.538;13.820;2023-01-29T05:30:33;1.10;99.90
44843;DHT22;31884;52.538;13.820;2023-01-29T05:32:59;1.10;99.90
44843;DHT22;31884;52.538;13.820;2023-01-29T05:35:24;1.00;99.90
44843;DHT22;31884;52.538;13.820;2023-01-29T05:37:51;1.00;99.90
44843;DHT22;31884;52.538;13.820;2023-01-29T05:40:17;1.00;99.90
44843;DHT22;31884;52.538;13.820;2023-01-29T05:42:42;1.00;99.90
44843;DHT22;31884;52.538;13.820;2023-01-29T05:45:08;1.00;99.90
44843;DHT22;31884;52.538;13.820;2023-01-29T05:47:35;1.00;99.90
44843;DHT22;31884;52.538;13.820;2023-01-29T05:50:00;1.00;99.90
44843;DHT22;31884;52.538;13.820;2023-01-29T05:52:26;1.00;99.90
44843;DHT22;31884;52.538;13.820;2023-01-29T05:54:51;1.00;99.90
44843;DHT22;31884;52.538;13.820;2023-01-29T05:57:17;1.00;99.90
44843;DHT22;31884;52.538;13.820;2023-01-29T05:59:42;1.00;99.90
44843;DHT22;31884;52.538;13.820;2023-01-29T06:02:08;1.00;99.90
44843;DHT22;31884;52.538;13.820;2023-01-29T06:04:33;1.00;99.90
44843;DHT22;31884;52.538;13.820;2023-01-29T06:06:58;1.00;99.90
44843;DHT22;31884;52.538;13.820;2023-01-29T06:09:25;1.00;99.90
44843;DHT22;31884;52.538;13.820;2023-01-29T06:11:50;1.00;99.90
44843;DHT22;31884;52.538;13.820;2023-01-29T06:14:16;1.00;99.90
44843;DHT22;31884;52.538;13.820;2023-01-29T06:16:41;1.10;99.90
44843;DHT22;31884;52.538;13.820;2023-01-29T06:19:07;1.00;99.90
44843;DHT22;31884;52.538;13.820;2023-01-29T06:21:32;1.10;99.90
44843;DHT22;31884;52.538;13.820;2023-01-29T06:23:58;1.10;99.90
44843;DHT22;31884;52.538;13.820;2023-01-29T06:26:23;1.10;99.90
44843;DHT22;31884;52.538;13.820;2023-01-29T06:28:49;1.10;99.90
44843;DHT22;31884;52.538;13.820;2023-01-29T06:31:14;1.10;99.90
44843;DHT22;31884;52.538;13.820;2023-01-29T06:33:40;1.10;99.90
44843;DHT22;31884;52.538;13.820;2023-01-29T06:36:06;1.10;99.90
44843;DHT22;31884;52.538;13.820;2023-01-29T06:38:31;1.10;99.90
44843;DHT22;31884;52.538;13.820;2023-01-29T06:40:57;1.10;99.90
44843;DHT22;31884;52.538;13.820;2023-01-29T06:43:23;1.10;99.90
44843;DHT22;31884;52.538;13.820;2023-01-29T06:45:54;1.10;99.90
44843;DHT22;31884;52.538;13.820;2023-01-29T06:48:21;1.10;99.90
44843;DHT22;31884;52.538;13.820;2023-01-29T06:50:46;1.10;99.90
44843;DHT22;31884;52.538;13.820;2023-01-29T06:53:14;1.10;99.90
44843;DHT22;31884;52.538;13.820;2023-01-29T06:55:40;1.10;99.90
44843;DHT22;31884;52.538;13.820;2023-01-29T06:58:10;1.10;99.90
44843;DHT22;31884;52.538;13.820;2023-01-29T07:00:36;1.10;99.90
44843;DHT22;31884;52.538;13.820;2023-01-29T07:03:03;1.20;99.90
44843;DHT22;31884;52.538;13.820;2023-01-29T07:05:29;1.20;99.90
44843;DHT22;31884;52.538;13.820;2023-01-29T07:07:55;1.20;99.90
44843;DHT22;31884;52.538;13.820;2023-01-29T07:10:21;1.20;99.90
44843;DHT22;31884;52.538;13.820;2023-01-29T07:12:46;1.20;99.90
44843;DHT22;31884;52.538;13.820;2023-01-29T07:15:12;1.30;99.90
44843;DHT22;31884;52.538;13.820;2023-01-29T07:17:38;1.30;99.90
44843;DHT22;31884;52.538;13.820;2023-01-29T07:20:04;1.30;99.90
44843;DHT22;31884;52.538;13.820;2023-01-29T07:22:31;1.30;99.90
44843;DHT22;31884;52.538;13.820;2023-01-29T07:24:56;1.30;99.90
44843;DHT22;31884;52.538;13.820;2023-01-29T07:27:22;1.30;99.90
44843;DHT22;31884;52.538;13.820;2023-01-29T07:29:47;1.30;99.90
44843;DHT22;31884;52.538;13.820;2023-01-29T07:32:13;1.40;99.90
44843;DHT22;31884;52.538;13.820;2023-01-29T07:34:38;1.40;99.90
44843;DHT22;31884;52.538;13.820;2023-01-29T07:37:04;1.40;99.90
44843;DHT22;31884;52.538;13.820;2023-01-29T07:39:30;1.40;99.90
44843;DHT22;31884;52.538;13.820;2023-01-29T07:41:56;1.40;99.90
44843;DHT22;31884;52.538;13.820;2023-01-29T07:44:21;1.50;99.90
44843;DHT22;31884;52.538;13.820;2023-01-29T07:46:47;1.50;99.90
44843;DHT22;31884;52.538;13.820;2023-01-29T07:49:12;1.50;99.90
44843;DHT22;31884;52.538;13.820;2023-01-29T07:51:38;1.50;99.90
44843;DHT22;31884;52.538;13.820;2023-01-29T07:54:03;1.50;99.90
44843;DHT22;31884;52.538;13.820;2023-01-29T07:56:28;1.50;99.90
44843;DHT22;31884;52.538;13.820;2023-01-29T07:58:55;1.50;99.90
44843;DHT22;31884;52.538;13.820;2023-01-29T08:01:20;1.50;99.90
44843;DHT22;31884;52.538;13.820;2023-01-29T08:03:46;1.60;99.90
44843;DHT22;31884;52.538;13.820;2023-01-29T08:06:11;1.60;99.90
44843;DHT22;31884;52.538;13.820;2023-01-29T08:08:36;1.60;99.90
44843;DHT22;31884;52.538;13.820;2023-01-29T08:11:03;1.60;99.90
44843;DHT22;31884;52.538;13.820;2023-01-29T08:13:30;1.60;99.90
44843;DHT22;31884;52.538;13.820;2023-01-29T08:16:02;1.60;99.90
44843;DHT22;31884;52.538;13.820;2023-01-29T08:18:29;1.60;99.90
44843;DHT22;31884;52.538;13.820;2023-01-29T08:21:01;1.70;99.90
44843;DHT22;31884;52.538;13.820;2023-01-29T08:23:27;1.70;99.90
44843;DHT22;31884;52.538;13.820;2023-01-29T08:25:52;1.80;99.90
44843;DHT22;31884;52.538;13.820;2023-01-29T08:28:18;1.80;99.90
44843;DHT22;31884;52.538;13.820;2023-01-29T08:30:43;1.80;99.90
44843;DHT22;31884;52.538;13.820;2023-01-29T08:33:09;1.80;99.90
44843;DHT22;31884;52.538;13.820;2023-01-29T08:35:35;1.80;99.90
44843;DHT22;31884;52.538;13.820;2023-01-29T08:38:02;1.80;99.90
44843;DHT22;31884;52.538;13.820;2023-01-29T08:40:30;1.80;99.90
44843;DHT22;31884;52.538;13.820;2023-01-29T08:43:06;1.80;99.90
44843;DHT22;31884;52.538;13.820;2023-01-29T08:45:36;1.80;99.90
44843;DHT22;31884;52.538;13.820;2023-01-29T08:48:02;1.90;99.90
44843;DHT22;31884;52.538;13.820;2023-01-29T08:50:28;1.90;99.90
44843;DHT22;31884;52.538;13.820;2023-01-29T08:52:59;1.90;99.90
44843;DHT22;31884;52.538;13.820;2023-01-29T08:55:26;2.00;99.90
44843;DHT22;31884;52.538;13.820;2023-01-29T08:57:52;2.00;99.90
44843;DHT22;31884;52.538;13.820;2023-01-29T09:00:17;2.00;99.90
44843;DHT22;31884;52.538;13.820;2023-01-29T09:02:43;2.00;99.90
44843;DHT22;31884;52.538;13.820;2023-01-29T09:05:08;2.00;99.90
44843;DHT22;31884;52.538;13.820;2023-01-29T09:07:34;2.00;99.90
44843;DHT22;31884;52.538;13.820;2023-01-29T09:10:00;2.00;99.90
44843;DHT22;31884;52.538;13.820;2023-01-29T09:12:26;2.00;99.90
44843;DHT22;31884;52.538;13.820;2023-01-29T09:14:51;2.00;99.90
44843;DHT22;31884;52.538;13.820;2023-01-29T09:17:17;2.10;99.90
44843;DHT22;31884;52.538;13.820;2023-01-29T09:19:42;2.10;99.90
44843;DHT22;31884;52.538;13.820;2023-01-29T09:22:08;2.10;99.90
44843;DHT22;31884;52.538;13.820;2023-01-29T09:24:33;2.10;99.90
44843;DHT22;31884;52.538;13.820;2023-01-29T09:26:59;2.10;99.90
44843;DHT22;31884;52.538;13.820;2023-01-29T09:29:25;2.10;99.90
44843;DHT22;31884;52.538;13.820;2023-01-29T09:31:50;2.20;99.90
44843;DHT22;31884;52.538;13.820;2023-01-29T09:34:16;2.20;99.90
44843;DHT22;31884;52.538;13.820;2023-01-29T09:36:41;2.20;99.90
44843;DHT22;31884;52.538;13.820;2023-01-29T09:39:07;2.20;99.90
44843;DHT22;31884;52.538;13.820;2023-01-29T09:41:47;2.20;99.90
44843;DHT22;31884;52.538;13.820;2023-01-29T09:44:51;2.20;99.90
44843;DHT22;31884;52.538;13.820;2023-01-29T09:47:19;2.20;99.90
44843;DHT22;31884;52.538;13.820;2023-01-29T09:49:48;2.20;99.90
44843;DHT22;31884;52.538;13.820;2023-01-29T09:52:21;2.30;99.90
44843;DHT22;31884;52.538;13.820;2023-01-29T09:54:53;2.30;99.90
44843;DHT22;31884;52.538;13.820;2023-01-29T09:57:29;2.30;99.90
44843;DHT22;31884;52.538;13.820;2023-01-29T09:59:57;2.40;99.90
44843;DHT22;31884;52.538;13.820;2023-01-29T10:08:17;2.50;99.90
44843;DHT22;31884;52.538;13.820;2023-01-29T10:13:26;2.50;99.90
44843;DHT22;31884;52.538;13.820;2023-01-29T10:16:06;2.50;99.90
44843;DHT22;31884;52.538;13.820;2023-01-29T10:21:42;2.50;99.90
44843;DHT22;31884;52.538;13.820;2023-01-29T10:27:00;2.60;99.90
44843;DHT22;31884;52.538;13.820;2023-01-29T10:29:26;2.60;99.90
44843;DHT22;31884;52.538;13.820;2023-01-29T10:31:56;2.60;99.90
44843;DHT22;31884;52.538;13.820;2023-01-29T10:37:16;2.70;99.90
44843;DHT22;31884;52.538;13.820;2023-01-29T10:39:42;2.70;99.90
44843;DHT22;31884;52.538;13.820;2023-01-29T10:42:18;2.70;99.90
44843;DHT22;31884;52.538;13.820;2023-01-29T10:45:06;2.80;99.90
44843;DHT22;31884;52.538;13.820;2023-01-29T10:47:59;2.80;99.90
44843;DHT22;31884;52.538;13.820;2023-01-29T10:50:44;2.90;99.90
44843;DHT22;31884;52.538;13.820;2023-01-29T10:53:26;2.90;99.90
44843;DHT22;31884;52.538;13.820;2023-01-29T10:59:02;3.00;99.90
44843;DHT22;31884;52.538;13.820;2023-01-29T11:01:29;3.10;99.90
44843;DHT22;31884;52.538;13.820;2023-01-29T11:03:57;3.10;99.90
44843;DHT22;31884;52.538;13.820;2023-01-29T11:06:32;3.10;99.90
44843;DHT22;31884;52.538;13.820;2023-01-29T11:09:03;3.10;99.90
44843;DHT22;31884;52.538;13.820;2023-01-29T11:11:46;3.10;99.90
44843;DHT22;31884;52.538;13.820;2023-01-29T11:14:19;3.10;99.90
44843;DHT22;31884;52.538;13.820;2023-01-29T11:16:47;3.20;99.90
44843;DHT22;31884;52.538;13.820;2023-01-29T11:19:13;3.30;99.90
44843;DHT22;31884;52.538;13.820;2023-01-29T11:21:57;3.30;99.90
44843;DHT22;31884;52.538;13.820;2023-01-29T11:24:23;3.40;99.90
44843;DHT22;31884;52.538;13.820;2023-01-29T11:26:51;3.40;99.90
44843;DHT22;31884;52.538;13.820;2023-01-29T11:29:31;3.50;99.90
44843;DHT22;31884;52.538;13.820;2023-01-29T11:31:58;3.60;99.90
44843;DHT22;31884;52.538;13.820;2023-01-29T11:34:25;3.70;99.90
44843;DHT22;31884;52.538;13.820;2023-01-29T11:37:02;3.70;99.90
44843;DHT22;31884;52.538;13.820;2023-01-29T11:39:31;3.90;99.90
44843;DHT22;31884;52.538;13.820;2023-01-29T11:42:01;4.00;99.90
44843;DHT22;31884;52.538;13.820;2023-01-29T11:44:40;4.10;99.90
44843;DHT22;31884;52.538;13.820;2023-01-29T11:47:20;4.20;99.90
44843;DHT22;31884;52.538;13.820;2023-01-29T11:49:56;4.30;99.90
44843;DHT22;31884;52.538;13.820;2023-01-29T11:52:25;4.40;99.90
44843;DHT22;31884;52.538;13.820;2023-01-29T11:55:00;4.40;99.90
44843;DHT22;31884;52.538;13.820;2023-01-29T11:57:32;4.40;99.90
44843;DHT22;31884;52.538;13.820;2023-01-29T12:00:05;4.40;99.90
44843;DHT22;31884;52.538;13.820;2023-01-29T12:02:40;4.50;99.90
44843;DHT22;31884;52.538;13.820;2023-01-29T12:05:21;4.50;99.90
44843;DHT22;31884;52.538;13.820;2023-01-29T12:07:49;4.60;99.90
44843;DHT22;31884;52.538;13.820;2023-01-29T12:13:23;4.60;99.90
44843;DHT22;31884;52.538;13.820;2023-01-29T12:16:07;4.60;99.90
44843;DHT22;31884;52.538;13.820;2023-01-29T12:18:39;4.70;99.90
44843;DHT22;31884;52.538;13.820;2023-01-29T12:21:13;4.70;99.90
44843;DHT22;31884;52.538;13.820;2023-01-29T12:23:55;4.80;99.90
44843;DHT22;31884;52.538;13.820;2023-01-29T12:26:53;4.90;99.90
44843;DHT22;31884;52.538;13.820;2023-01-29T12:29:30;5.00;99.90
44843;DHT22;31884;52.538;13.820;2023-01-29T12:34:49;5.00;99.90
44843;DHT22;31884;52.538;13.820;2023-01-29T12:39:57;5.00;99.90
44843;DHT22;31884;52.538;13.820;2023-01-29T12:42:23;5.00;99.90
44843;DHT22;31884;52.538;13.820;2023-01-29T12:45:03;5.00;99.90
44843;DHT22;31884;52.538;13.820;2023-01-29T12:47:37;4.90;98.70
44843;DHT22;31884;52.538;13.820;2023-01-29T12:50:29;4.90;97.80
44843;DHT22;31884;52.538;13.820;2023-01-29T12:52:59;4.90;99.70
44843;DHT22;31884;52.538;13.820;2023-01-29T12:55:40;4.90;98.20
44843;DHT22;31884;52.538;13.820;2023-01-29T12:58:16;4.90;98.60
44843;DHT22;31884;52.538;13.820;2023-01-29T13:00:48;5.00;99.70
44843;DHT22;31884;52.538;13.820;2023-01-29T13:03:42;5.00;98.60
44843;DHT22;31884;52.538;13.820;2023-01-29T13:06:11;4.90;97.20
44843;DHT22;31884;52.538;13.820;2023-01-29T13:08:44;4.90;97.80
44843;DHT22;31884;52.538;13.820;2023-01-29T13:11:24;4.80;98.10
44843;DHT22;31884;52.538;13.820;2023-01-29T13:14:08;4.80;98.50
44843;DHT22;31884;52.538;13.820;2023-01-29T13:16:41;4.70;98.80
44843;DHT22;31884;52.538;13.820;2023-01-29T13:21:53;4.60;99.10
44843;DHT22;31884;52.538;13.820;2023-01-29T13:24:22;4.60;99.60
44843;DHT22;31884;52.538;13.820;2023-01-29T13:26:49;4.60;99.30
44843;DHT22;31884;52.538;13.820;2023-01-29T13:29:27;4.60;99.50
44843;DHT22;31884;52.538;13.820;2023-01-29T13:31:55;4.60;99.40
44843;DHT22;31884;52.538;13.820;2023-01-29T13:36:48;4.60;98.40
44843;DHT22;31884;52.538;13.820;2023-01-29T13:39:36;4.60;98.40
44843;DHT22;31884;52.538;13.820;2023-01-29T13:42:37;4.60;98.80
44843;DHT22;31884;52.538;13.820;2023-01-29T13:45:06;4.60;98.20
44843;DHT22;31884;52.538;13.820;2023-01-29T13:47:35;4.60;99.00
44843;DHT22;31884;52.538;13.820;2023-01-29T13:50:17;4.60;99.30
44843;DHT22;31884;52.538;13.820;2023-01-29T14:08:03;4.60;99.60
44843;DHT22;31884;52.538;13.820;2023-01-29T14:10:31;4.60;99.70
44843;DHT22;31884;52.538;13.820;2023-01-29T14:15:35;4.50;99.90
44843;DHT22;31884;52.538;13.820;2023-01-29T14:20:48;4.50;99.90
44843;DHT22;31884;52.538;13.820;2023-01-29T14:23:28;4.40;99.90
44843;DHT22;31884;52.538;13.820;2023-01-29T14:25:55;4.40;99.90
44843;DHT22;31884;52.538;13.820;2023-01-29T14:28:27;4.40;99.90
44843;DHT22;31884;52.538;13.820;2023-01-29T14:30:54;4.40;99.90
44843;DHT22;31884;52.538;13.820;2023-01-29T14:33:37;4.30;99.90
44843;DHT22;31884;52.538;13.820;2023-01-29T14:36:11;4.20;99.90
44843;DHT22;31884;52.538;13.820;2023-01-29T14:38:37;4.20;99.90
44843;DHT22;31884;52.538;13.820;2023-01-29T14:41:50;4.10;99.90
44843;DHT22;31884;52.538;13.820;2023-01-29T14:50:01;4.00;99.90
44843;DHT22;31884;52.538;13.820;2023-01-29T14:52:39;4.00;99.90
44843;DHT22;31884;52.538;13.820;2023-01-29T14:55:17;3.90;99.90
44843;DHT22;31884;52.538;13.820;2023-01-29T14:57:47;3.90;99.90
44843;DHT22;31884;52.538;13.820;2023-01-29T15:00:27;3.80;99.90
44843;DHT22;31884;52.538;13.820;2023-01-29T15:02:53;3.80;99.90
44843;DHT22;31884;52.538;13.820;2023-01-29T15:05:24;3.70;99.90
44843;DHT22;31884;52.538;13.820;2023-01-29T15:08:05;3.70;99.90
44843;DHT22;31884;52.538;13.820;2023-01-29T15:10:49;3.70;99.90
44843;DHT22;31884;52.538;13.820;2023-01-29T15:13:49;3.60;99.90
44843;DHT22;31884;52.538;13.820;2023-01-29T15:16:23;3.60;99.90
44843;DHT22;31884;52.538;13.820;2023-01-29T15:18:53;3.60;99.90
44843;DHT22;31884;52.538;13.820;2023-01-29T15:21:20;3.50;99.90
44843;DHT22;31884;52.538;13.820;2023-01-29T15:23:46;3.50;99.90
44843;DHT22;31884;52.538;13.820;2023-01-29T15:26:23;3.50;99.90
44843;DHT22;31884;52.538;13.820;2023-01-29T15:28:56;3.50;99.90
44843;DHT22;31884;52.538;13.820;2023-01-29T15:31:23;3.40;99.90
44843;DHT22;31884;52.538;13.820;2023-01-29T15:33:53;3.40;99.90
44843;DHT22;31884;52.538;13.820;2023-01-29T15:36:27;3.30;99.90
44843;DHT22;31884;52.538;13.820;2023-01-29T15:41:33;3.30;99.90
44843;DHT22;31884;52.538;13.820;2023-01-29T15:43:59;3.30;99.90
44843;DHT22;31884;52.538;13.820;2023-01-29T15:46:35;3.30;99.90
44843;DHT22;31884;52.538;13.820;2023-01-29T15:49:05;3.30;99.90
44843;DHT22;31884;52.538;13.820;2023-01-29T15:51:32;3.20;99.90
44843;DHT22;31884;52.538;13.820;2023-01-29T15:54:00;3.20;99.90
44843;DHT22;31884;52.538;13.820;2023-01-29T15:56:41;3.20;99.90
44843;DHT22;31884;52.538;13.820;2023-01-29T15:59:18;3.10;99.90
44843;DHT22;31884;52.538;13.820;2023-01-29T16:01:45;3.10;99.90
44843;DHT22;31884;52.538;13.820;2023-01-29T16:04:23;3.10;99.90
44843;DHT22;31884;52.538;13.820;2023-01-29T16:06:52;3.10;99.90
44843;DHT22;31884;52.538;13.820;2023-01-29T16:09:20;3.10;99.90
44843;DHT22;31884;52.538;13.820;2023-01-29T16:11:48;3.00;99.90
44843;DHT22;31884;52.538;13.820;2023-01-29T16:14:17;3.00;99.90
44843;DHT22;31884;52.538;13.820;2023-01-29T16:16:45;3.00;99.90
44843;DHT22;31884;52.538;13.820;2023-01-29T16:19:23;3.00;99.90
44843;DHT22;31884;52.538;13.820;2023-01-29T16:21:53;3.00;99.90
44843;DHT22;31884;52.538;13.820;2023-01-29T16:24:20;3.00;99.90
44843;DHT22;31884;52.538;13.820;2023-01-29T16:26:49;3.00;99.90
44843;DHT22;31884;52.538;13.820;2023-01-29T16:29:21;3.00;99.90
44843;DHT22;31884;52.538;13.820;2023-01-29T16:31:50;3.00;99.90
44843;DHT22;31884;52.538;13.820;2023-01-29T16:34:38;2.90;99.90
44843;DHT22;31884;52.538;13.820;2023-01-29T16:37:06;2.90;99.90
44843;DHT22;31884;52.538;13.820;2023-01-29T16:39:36;2.90;99.90
44843;DHT22;31884;52.538;13.820;2023-01-29T16:44:45;2.90;99.90
44843;DHT22;31884;52.538;13.820;2023-01-29T16:55:23;2.80;99.90
44843;DHT22;31884;52.538;13.820;2023-01-29T16:57:53;2.80;99.90
44843;DHT22;31884;52.538;13.820;2023-01-29T17:00:25;2.80;99.90
44843;DHT22;31884;52.538;13.820;2023-01-29T17:02:54;2.80;99.90
44843;DHT22;31884;52.538;13.820;2023-01-29T17:05:27;2.80;99.90
44843;DHT22;31884;52.538;13.820;2023-01-29T17:07:55;2.70;99.90
44843;DHT22;31884;52.538;13.820;2023-01-29T17:10:22;2.70;99.90
44843;DHT22;31884;52.538;13.820;2023-01-29T17:18:30;2.70;99.90
44843;DHT22;31884;52.538;13.820;2023-01-29T17:20:56;2.70;99.90
44843;DHT22;31884;52.538;13.820;2023-01-29T17:23:21;2.70;99.90
44843;DHT22;31884;52.538;13.820;2023-01-29T17:25:47;2.80;99.90
44843;DHT22;31884;52.538;13.820;2023-01-29T17:28:15;2.80;99.90
44843;DHT22;31884;52.538;13.820;2023-01-29T17:30:41;2.80;99.90
44843;DHT22;31884;52.538;13.820;2023-01-29T17:33:12;2.80;99.90
44843;DHT22;31884;52.538;13.820;2023-01-29T17:35:38;2.70;99.90
44843;DHT22;31884;52.538;13.820;2023-01-29T17:38:04;2.70;99.90
44843;DHT22;31884;52.538;13.820;2023-01-29T17:41:01;2.70;99.90